sensor_id;sensor_type;location;lat;lon;timestamp;pressure;altitude;pressure_sealevel;temperature;humidity
52307;BME280;38249;48.920;12.882;2022-09-04T00:02:14;97095.94;;;20.68;54.18
52307;BME280;38249;48.920;12.882;2022-09-04T00:04:59;97087.22;;;20.63;54.25
52307;BME280;38249;48.920;12.882;2022-09-04T00:07:31;97095.31;;;20.40;54.59
52307;BME280;38249;48.920;12.882;2022-09-04T00:10:08;97094.31;;;20.48;54.61
52307;BME280;38249;48.920;12.882;2022-09-04T00:12:40;97100.06;;;20.43;54.59
52307;BME280;38249;48.920;12.882;2022-09-04T00:15:12;97104.94;;;20.33;54.71
52307;BME280;38249;48.920;12.882;2022-09-04T00:17:46;97095.75;;;20.42;54.71
52307;BME280;38249;48.920;12.882;2022-09-04T00:20:27;97100.00;;;20.39;54.74
52307;BME280;38249;48.920;12.882;2022-09-04T00:23:00;97100.19;;;20.30;54.88
52307;BME280;38249;48.920;12.882;2022-09-04T00:25:33;97104.50;;;20.31;54.69
52307;BME280;38249;48.920;12.882;2022-09-04T00:28:06;97099.00;;;20.28;54.82
52307;BME280;38249;48.920;12.882;2022-09-04T00:30:40;97103.56;;;20.24;54.93
52307;BME280;38249;48.920;12.882;2022-09-04T00:33:17;97102.00;;;20.23;55.18
52307;BME280;38249;48.920;12.882;2022-09-04T00:35:48;97105.50;;;20.23;55.10
52307;BME280;38249;48.920;12.882;2022-09-04T00:38:32;97107.94;;;20.28;54.77
52307;BME280;38249;48.920;12.882;2022-09-04T00:41:08;97110.00;;;20.15;54.94
52307;BME280;38249;48.920;12.882;2022-09-04T00:44:02;97114.38;;;20.20;54.76
52307;BME280;38249;48.920;12.882;2022-09-04T00:49:44;97115.13;;;20.01;54.95
52307;BME280;38249;48.920;12.882;2022-09-04T00:52:24;97102.88;;;19.91;55.15
52307;BME280;38249;48.920;12.882;2022-09-04T00:55:07;97113.16;;;19.98;54.87
52307;BME280;38249;48.920;12.882;2022-09-04T00:57:58;97114.69;;;19.99;55.03
52307;BME280;38249;48.920;12.882;2022-09-04T01:00:29;97117.13;;;19.69;54.98
52307;BME280;38249;48.920;12.882;2022-09-04T01:03:07;97119.56;;;19.90;54.87
52307;BME280;38249;48.920;12.882;2022-09-04T01:05:52;97125.78;;;19.90;54.84
52307;BME280;38249;48.920;12.882;2022-09-04T01:08:34;97124.84;;;19.83;54.79
52307;BME280;38249;48.920;12.882;2022-09-04T01:11:11;97126.25;;;19.76;54.83
52307;BME280;38249;48.920;12.882;2022-09-04T01:13:44;97128.78;;;19.69;54.92
52307;BME280;38249;48.920;12.882;2022-09-04T01:16:18;97133.44;;;19.69;54.86
52307;BME280;38249;48.920;12.882;2022-09-04T01:18:53;97140.72;;;19.65;55.00
52307;BME280;38249;48.920;12.882;2022-09-04T01:22:13;97132.72;;;19.72;54.78
52307;BME280;38249;48.920;12.882;2022-09-04T01:24:58;97133.19;;;19.58;55.00
52307;BME280;38249;48.920;12.882;2022-09-04T01:27:31;97137.13;;;19.45;55.33
52307;BME280;38249;48.920;12.882;2022-09-04T01:30:03;97136.59;;;19.55;54.82
52307;BME280;38249;48.920;12.882;2022-09-04T01:32:44;97128.28;;;19.32;55.58
52307;BME280;38249;48.920;12.882;2022-09-04T01:35:22;97134.66;;;19.23;55.82
52307;BME280;38249;48.920;12.882;2022-09-04T01:37:58;97141.22;;;19.22;55.74
52307;BME280;38249;48.920;12.882;2022-09-04T01:40:35;97136.59;;;19.23;55.60
52307;BME280;38249;48.920;12.882;2022-09-04T01:43:06;97141.59;;;19.21;55.86
52307;BME280;38249;48.920;12.882;2022-09-04T01:46:09;97143.81;;;19.31;55.31
52307;BME280;38249;48.920;12.882;2022-09-04T01:48:44;97146.50;;;19.15;55.61
52307;BME280;38249;48.920;12.882;2022-09-04T01:51:19;97149.91;;;19.12;55.74
52307;BME280;38249;48.920;12.882;2022-09-04T01:53:57;97148.66;;;19.10;55.84
52307;BME280;38249;48.920;12.882;2022-09-04T01:56:33;97155.06;;;19.01;55.94
52307;BME280;38249;48.920;12.882;2022-09-04T01:59:11;97153.84;;;18.99;56.06
52307;BME280;38249;48.920;12.882;2022-09-04T02:01:46;97157.34;;;18.99;56.12
52307;BME280;38249;48.920;12.882;2022-09-04T02:04:22;97155.31;;;18.96;56.14
52307;BME280;38249;48.920;12.882;2022-09-04T02:06:58;97156.91;;;18.97;55.86
52307;BME280;38249;48.920;12.882;2022-09-04T02:09:35;97164.72;;;18.99;55.89
52307;BME280;38249;48.920;12.882;2022-09-04T02:12:10;97153.28;;;18.93;56.02
52307;BME280;38249;48.920;12.882;2022-09-04T02:14:48;97157.38;;;18.87;55.87
52307;BME280;38249;48.920;12.882;2022-09-04T02:17:26;97161.47;;;18.81;56.30
52307;BME280;38249;48.920;12.882;2022-09-04T02:20:02;97159.34;;;18.74;56.36
52307;BME280;38249;48.920;12.882;2022-09-04T02:22:39;97162.41;;;18.73;56.47
52307;BME280;38249;48.920;12.882;2022-09-04T02:25:17;97151.44;;;18.69;56.38
52307;BME280;38249;48.920;12.882;2022-09-04T02:27:53;97161.50;;;18.68;56.35
52307;BME280;38249;48.920;12.882;2022-09-04T02:30:29;97161.50;;;18.68;56.57
52307;BME280;38249;48.920;12.882;2022-09-04T02:33:02;97156.78;;;18.65;56.50
52307;BME280;38249;48.920;12.882;2022-09-04T02:35:37;97152.50;;;18.64;56.52
52307;BME280;38249;48.920;12.882;2022-09-04T02:38:13;97153.38;;;18.68;56.36
52307;BME280;38249;48.920;12.882;2022-09-04T02:40:49;97154.63;;;18.71;56.42
52307;BME280;38249;48.920;12.882;2022-09-04T02:43:39;97157.00;;;18.73;56.48
52307;BME280;38249;48.920;12.882;2022-09-04T02:46:15;97159.84;;;18.64;56.46
52307;BME280;38249;48.920;12.882;2022-09-04T02:48:56;97157.22;;;18.67;56.56
52307;BME280;38249;48.920;12.882;2022-09-04T02:51:40;97160.47;;;18.73;56.42
52307;BME280;38249;48.920;12.882;2022-09-04T02:54:13;97157.78;;;18.73;56.56
52307;BME280;38249;48.920;12.882;2022-09-04T02:56:47;97162.16;;;18.78;56.38
52307;BME280;38249;48.920;12.882;2022-09-04T02:59:29;97162.50;;;18.76;56.42
52307;BME280;38249;48.920;12.882;2022-09-04T03:02:04;97159.16;;;18.67;56.41
52307;BME280;38249;48.920;12.882;2022-09-04T03:04:37;97158.56;;;18.74;56.46
52307;BME280;38249;48.920;12.882;2022-09-04T03:07:10;97163.19;;;18.73;56.29
52307;BME280;38249;48.920;12.882;2022-09-04T03:09:43;97159.94;;;18.67;56.43
52307;BME280;38249;48.920;12.882;2022-09-04T03:12:26;97164.88;;;18.78;56.23
52307;BME280;38249;48.920;12.882;2022-09-04T03:14:57;97165.66;;;18.91;55.62
52307;BME280;38249;48.920;12.882;2022-09-04T03:17:33;97161.72;;;18.76;56.26
52307;BME280;38249;48.920;12.882;2022-09-04T03:20:06;97168.28;;;18.75;56.17
52307;BME280;38249;48.920;12.882;2022-09-04T03:22:40;97174.50;;;18.75;56.15
52307;BME280;38249;48.920;12.882;2022-09-04T03:28:28;97173.72;;;18.75;56.49
52307;BME280;38249;48.920;12.882;2022-09-04T03:31:05;97170.09;;;18.71;56.54
52307;BME280;38249;48.920;12.882;2022-09-04T03:33:37;97167.50;;;18.74;56.49
52307;BME280;38249;48.920;12.882;2022-09-04T03:36:08;97163.19;;;18.73;56.39
52307;BME280;38249;48.920;12.882;2022-09-04T03:38:44;97162.06;;;18.74;56.51
52307;BME280;38249;48.920;12.882;2022-09-04T03:41:21;97162.19;;;18.65;56.32
52307;BME280;38249;48.920;12.882;2022-09-04T03:44:05;97165.00;;;18.69;56.32
52307;BME280;38249;48.920;12.882;2022-09-04T03:46:45;97164.38;;;18.60;56.41
52307;BME280;38249;48.920;12.882;2022-09-04T03:49:25;97165.94;;;18.61;56.39
52307;BME280;38249;48.920;12.882;2022-09-04T03:52:01;97168.53;;;18.69;55.92
52307;BME280;38249;48.920;12.882;2022-09-04T03:54:41;97175.50;;;18.42;56.64
52307;BME280;38249;48.920;12.882;2022-09-04T03:57:22;97183.56;;;18.39;56.97
52307;BME280;38249;48.920;12.882;2022-09-04T04:00:01;97180.03;;;18.38;57.02
52307;BME280;38249;48.920;12.882;2022-09-04T04:02:45;97179.59;;;18.36;57.23
52307;BME280;38249;48.920;12.882;2022-09-04T04:05:24;97171.69;;;18.31;57.22
52307;BME280;38249;48.920;12.882;2022-09-04T04:08:02;97184.47;;;18.30;57.40
52307;BME280;38249;48.920;12.882;2022-09-04T04:10:35;97181.66;;;18.27;57.38
52307;BME280;38249;48.920;12.882;2022-09-04T04:13:34;97182.53;;;18.43;56.88
52307;BME280;38249;48.920;12.882;2022-09-04T04:16:15;97189.66;;;18.36;57.05
52307;BME280;38249;48.920;12.882;2022-09-04T04:18:50;97191.56;;;18.47;56.51
52307;BME280;38249;48.920;12.882;2022-09-04T04:21:32;97180.50;;;18.28;57.10
52307;BME280;38249;48.920;12.882;2022-09-04T04:24:23;97188.91;;;18.23;57.30
52307;BME280;38249;48.920;12.882;2022-09-04T04:27:04;97192.97;;;18.17;57.54
52307;BME280;38249;48.920;12.882;2022-09-04T04:29:48;97196.50;;;18.17;57.62
52307;BME280;38249;48.920;12.882;2022-09-04T04:32:27;97202.25;;;18.16;57.67
52307;BME280;38249;48.920;12.882;2022-09-04T04:35:08;97206.78;;;18.24;57.54
52307;BME280;38249;48.920;12.882;2022-09-04T04:37:48;97208.22;;;18.21;57.57
52307;BME280;38249;48.920;12.882;2022-09-04T04:40:26;97203.81;;;18.17;57.78
52307;BME280;38249;48.920;12.882;2022-09-04T04:43:00;97218.97;;;18.18;57.79
52307;BME280;38249;48.920;12.882;2022-09-04T04:45:36;97214.78;;;18.20;57.94
52307;BME280;38249;48.920;12.882;2022-09-04T04:51:24;97224.28;;;18.26;57.73
52307;BME280;38249;48.920;12.882;2022-09-04T04:54:12;97226.53;;;18.37;57.56
52307;BME280;38249;48.920;12.882;2022-09-04T04:56:49;97240.31;;;18.31;57.82
52307;BME280;38249;48.920;12.882;2022-09-04T04:59:21;97248.25;;;18.37;57.70
52307;BME280;38249;48.920;12.882;2022-09-04T05:01:58;97242.13;;;18.40;57.78
52307;BME280;38249;48.920;12.882;2022-09-04T05:04:38;97248.56;;;18.47;57.47
52307;BME280;38249;48.920;12.882;2022-09-04T05:07:13;97254.31;;;18.46;57.97
52307;BME280;38249;48.920;12.882;2022-09-04T05:09:47;97266.00;;;18.46;57.68
52307;BME280;38249;48.920;12.882;2022-09-04T05:12:23;97269.59;;;18.50;57.67
52307;BME280;38249;48.920;12.882;2022-09-04T05:14:58;97274.25;;;18.50;57.67
52307;BME280;38249;48.920;12.882;2022-09-04T05:17:31;97279.00;;;18.53;57.84
52307;BME280;38249;48.920;12.882;2022-09-04T05:20:17;97282.00;;;18.64;57.62
52307;BME280;38249;48.920;12.882;2022-09-04T05:22:53;97278.84;;;18.62;57.38
52307;BME280;38249;48.920;12.882;2022-09-04T05:25:31;97286.75;;;18.67;57.62
52307;BME280;38249;48.920;12.882;2022-09-04T05:28:05;97291.16;;;18.72;57.58
52307;BME280;38249;48.920;12.882;2022-09-04T05:30:41;97290.13;;;18.76;57.46
52307;BME280;38249;48.920;12.882;2022-09-04T05:33:17;97296.38;;;18.89;57.39
52307;BME280;38249;48.920;12.882;2022-09-04T05:35:52;97297.69;;;18.95;57.44
52307;BME280;38249;48.920;12.882;2022-09-04T05:38:25;97295.44;;;18.97;57.59
52307;BME280;38249;48.920;12.882;2022-09-04T05:41:16;97300.97;;;19.29;57.13
52307;BME280;38249;48.920;12.882;2022-09-04T05:43:57;97305.94;;;19.39;57.30
52307;BME280;38249;48.920;12.882;2022-09-04T05:46:35;97314.91;;;19.56;57.31
52307;BME280;38249;48.920;12.882;2022-09-04T05:49:15;97314.81;;;19.81;57.08
52307;BME280;38249;48.920;12.882;2022-09-04T05:52:19;97323.25;;;20.07;56.63
52307;BME280;38249;48.920;12.882;2022-09-04T05:55:08;97320.72;;;20.14;56.72
52307;BME280;38249;48.920;12.882;2022-09-04T05:57:45;97327.22;;;20.26;56.57
52307;BME280;38249;48.920;12.882;2022-09-04T06:00:15;97334.75;;;20.32;56.43
52307;BME280;38249;48.920;12.882;2022-09-04T06:03:15;97338.84;;;20.74;55.18
52307;BME280;38249;48.920;12.882;2022-09-04T06:06:13;97343.31;;;20.82;55.15
52307;BME280;38249;48.920;12.882;2022-09-04T06:08:59;97342.81;;;20.77;55.17
52307;BME280;38249;48.920;12.882;2022-09-04T06:11:39;97340.78;;;20.74;55.43
52307;BME280;38249;48.920;12.882;2022-09-04T06:14:27;97348.59;;;20.75;55.31
52307;BME280;38249;48.920;12.882;2022-09-04T06:17:12;97346.44;;;20.65;55.43
52307;BME280;38249;48.920;12.882;2022-09-04T06:19:53;97350.72;;;20.66;55.53
52307;BME280;38249;48.920;12.882;2022-09-04T06:22:34;97349.94;;;20.65;55.47
52307;BME280;38249;48.920;12.882;2022-09-04T06:28:23;97361.06;;;21.12;54.72
52307;BME280;38249;48.920;12.882;2022-09-04T06:31:01;97360.28;;;21.11;54.57
52307;BME280;38249;48.920;12.882;2022-09-04T06:33:47;97358.59;;;21.22;53.88
52307;BME280;38249;48.920;12.882;2022-09-04T06:36:33;97359.72;;;21.21;53.92
52307;BME280;38249;48.920;12.882;2022-09-04T06:39:11;97363.22;;;21.02;54.54
52307;BME280;38249;48.920;12.882;2022-09-04T06:41:56;97368.94;;;20.97;54.97
52307;BME280;38249;48.920;12.882;2022-09-04T06:44:39;97366.94;;;20.94;54.97
52307;BME280;38249;48.920;12.882;2022-09-04T06:47:19;97369.78;;;20.82;55.16
52307;BME280;38249;48.920;12.882;2022-09-04T06:50:00;97369.00;;;20.65;55.64
52307;BME280;38249;48.920;12.882;2022-09-04T06:52:37;97379.13;;;20.65;55.80
52307;BME280;38249;48.920;12.882;2022-09-04T06:55:12;97371.09;;;20.56;56.12
52307;BME280;38249;48.920;12.882;2022-09-04T06:57:57;97379.25;;;20.56;56.30
52307;BME280;38249;48.920;12.882;2022-09-04T07:00:32;97383.38;;;20.50;56.37
52307;BME280;38249;48.920;12.882;2022-09-04T07:03:36;97377.19;;;20.65;56.12
52307;BME280;38249;48.920;12.882;2022-09-04T07:06:11;97388.66;;;20.43;56.91
52307;BME280;38249;48.920;12.882;2022-09-04T07:08:50;97393.69;;;20.73;55.99
52307;BME280;38249;48.920;12.882;2022-09-04T07:11:31;97397.41;;;21.00;55.63
52307;BME280;38249;48.920;12.882;2022-09-04T07:14:20;97409.00;;;21.13;55.14
52307;BME280;38249;48.920;12.882;2022-09-04T07:16:56;97419.66;;;21.02;55.70
52307;BME280;38249;48.920;12.882;2022-09-04T07:20:06;97413.56;;;21.09;55.52
52307;BME280;38249;48.920;12.882;2022-09-04T07:25:38;97420.25;;;21.47;54.58
52307;BME280;38249;48.920;12.882;2022-09-04T07:28:16;97428.41;;;21.63;54.01
52307;BME280;38249;48.920;12.882;2022-09-04T07:30:48;97427.38;;;21.90;53.74
52307;BME280;38249;48.920;12.882;2022-09-04T07:33:22;97424.38;;;22.38;52.88
52307;BME280;38249;48.920;12.882;2022-09-04T07:35:56;97417.06;;;22.69;51.52
52307;BME280;38249;48.920;12.882;2022-09-04T07:38:31;97422.50;;;22.92;51.71
52307;BME280;38249;48.920;12.882;2022-09-04T07:41:05;97423.56;;;23.37;50.50
52307;BME280;38249;48.920;12.882;2022-09-04T07:43:39;97423.19;;;24.03;48.53
52307;BME280;38249;48.920;12.882;2022-09-04T07:46:15;97428.97;;;25.32;46.85
52307;BME280;38249;48.920;12.882;2022-09-04T07:48:49;97437.63;;;26.44;44.66
52307;BME280;38249;48.920;12.882;2022-09-04T07:51:22;97430.94;;;27.38;43.17
52307;BME280;38249;48.920;12.882;2022-09-04T07:54:19;97443.38;;;28.60;40.16
52307;BME280;38249;48.920;12.882;2022-09-04T07:57:01;97440.19;;;29.49;38.25
52307;BME280;38249;48.920;12.882;2022-09-04T07:59:44;97453.13;;;30.21;36.33
52307;BME280;38249;48.920;12.882;2022-09-04T08:02:25;97467.63;;;30.83;35.34
52307;BME280;38249;48.920;12.882;2022-09-04T08:05:17;97474.66;;;31.15;33.86
52307;BME280;38249;48.920;12.882;2022-09-04T08:11:00;97468.50;;;29.94;34.92
52307;BME280;38249;48.920;12.882;2022-09-04T08:13:53;97465.06;;;29.49;36.35
52307;BME280;38249;48.920;12.882;2022-09-04T08:16:30;97461.94;;;29.77;36.40
52307;BME280;38249;48.920;12.882;2022-09-04T08:19:17;97468.59;;;31.00;34.42
52307;BME280;38249;48.920;12.882;2022-09-04T08:21:47;97474.91;;;31.44;34.08
52307;BME280;38249;48.920;12.882;2022-09-04T08:24:49;97487.50;;;32.82;31.64
52307;BME280;38249;48.920;12.882;2022-09-04T08:27:34;97489.00;;;34.20;30.41
52307;BME280;38249;48.920;12.882;2022-09-04T08:30:07;97493.00;;;35.22;28.40
52307;BME280;38249;48.920;12.882;2022-09-04T08:32:59;97493.78;;;36.55;26.95
52307;BME280;38249;48.920;12.882;2022-09-04T08:35:32;97494.41;;;37.09;25.99
52307;BME280;38249;48.920;12.882;2022-09-04T08:38:09;97507.97;;;38.12;24.26
52307;BME280;38249;48.920;12.882;2022-09-04T08:40:56;97504.97;;;39.01;23.70
52307;BME280;38249;48.920;12.882;2022-09-04T08:43:41;97512.34;;;40.31;22.10
52307;BME280;38249;48.920;12.882;2022-09-04T08:46:40;97515.78;;;39.42;21.59
52307;BME280;38249;48.920;12.882;2022-09-04T08:55:38;97520.41;;;40.89;20.80
52307;BME280;38249;48.920;12.882;2022-09-04T08:58:41;97523.41;;;41.41;19.93
52307;BME280;38249;48.920;12.882;2022-09-04T09:01:42;97519.41;;;41.48;19.46
52307;BME280;38249;48.920;12.882;2022-09-04T09:04:39;97519.97;;;41.52;19.55
52307;BME280;38249;48.920;12.882;2022-09-04T09:07:30;97521.03;;;42.01;18.69
52307;BME280;38249;48.920;12.882;2022-09-04T09:10:30;97516.63;;;42.90;18.40
52307;BME280;38249;48.920;12.882;2022-09-04T09:13:35;97519.22;;;43.43;18.09
52307;BME280;38249;48.920;12.882;2022-09-04T09:16:20;97528.34;;;43.92;17.70
52307;BME280;38249;48.920;12.882;2022-09-04T09:19:17;97522.22;;;43.99;16.53
52307;BME280;38249;48.920;12.882;2022-09-04T09:22:05;97530.78;;;43.45;16.74
52307;BME280;38249;48.920;12.882;2022-09-04T09:25:12;97523.19;;;43.79;17.38
52307;BME280;38249;48.920;12.882;2022-09-04T09:28:29;97522.97;;;44.96;16.80
52307;BME280;38249;48.920;12.882;2022-09-04T09:31:33;97524.44;;;45.19;16.52
52307;BME280;38249;48.920;12.882;2022-09-04T09:34:46;97530.13;;;45.14;15.74
52307;BME280;38249;48.920;12.882;2022-09-04T09:37:32;97521.31;;;45.40;15.66
52307;BME280;38249;48.920;12.882;2022-09-04T09:43:33;97512.63;;;46.76;14.68
52307;BME280;38249;48.920;12.882;2022-09-04T09:46:34;97515.94;;;47.49;13.84
52307;BME280;38249;48.920;12.882;2022-09-04T09:49:27;97512.50;;;48.26;13.92
52307;BME280;38249;48.920;12.882;2022-09-04T09:52:11;97507.53;;;47.95;13.28
52307;BME280;38249;48.920;12.882;2022-09-04T09:55:07;97507.47;;;48.00;13.68
52307;BME280;38249;48.920;12.882;2022-09-04T09:58:15;97507.69;;;48.94;13.62
52307;BME280;38249;48.920;12.882;2022-09-04T10:00:59;97497.38;;;48.18;13.22
52307;BME280;38249;48.920;12.882;2022-09-04T10:03:51;97493.53;;;46.77;14.28
52307;BME280;38249;48.920;12.882;2022-09-04T10:13:03;97493.06;;;46.73;14.24
52307;BME280;38249;48.920;12.882;2022-09-04T10:19:00;97501.75;;;46.56;13.79
52307;BME280;38249;48.920;12.882;2022-09-04T10:22:11;97497.53;;;47.36;13.63
52307;BME280;38249;48.920;12.882;2022-09-04T10:31:19;97495.31;;;48.19;13.29
52307;BME280;38249;48.920;12.882;2022-09-04T10:34:12;97491.63;;;48.37;13.04
52307;BME280;38249;48.920;12.882;2022-09-04T10:36:58;97492.47;;;48.19;13.13
52307;BME280;38249;48.920;12.882;2022-09-04T10:39:36;97487.78;;;48.94;13.04
52307;BME280;38249;48.920;12.882;2022-09-04T10:42:34;97491.72;;;48.77;13.02
52307;BME280;38249;48.920;12.882;2022-09-04T10:45:24;97487.97;;;48.56;12.71
52307;BME280;38249;48.920;12.882;2022-09-04T10:48:10;97478.81;;;48.76;12.71
52307;BME280;38249;48.920;12.882;2022-09-04T10:50:59;97486.00;;;48.64;12.80
52307;BME280;38249;48.920;12.882;2022-09-04T10:53:49;97483.94;;;48.19;12.52
52307;BME280;38249;48.920;12.882;2022-09-04T10:56:24;97482.00;;;48.27;12.71
52307;BME280;38249;48.920;12.882;2022-09-04T10:59:21;97484.56;;;49.11;12.20
52307;BME280;38249;48.920;12.882;2022-09-04T11:02:24;97484.75;;;49.66;11.94
52307;BME280;38249;48.920;12.882;2022-09-04T11:05:27;97491.31;;;51.24;11.07
52307;BME280;38249;48.920;12.882;2022-09-04T11:08:37;97486.34;;;51.61;10.70
52307;BME280;38249;48.920;12.882;2022-09-04T11:11:43;97483.19;;;52.03;10.83
52307;BME280;38249;48.920;12.882;2022-09-04T11:14:28;97479.06;;;51.52;10.74
52307;BME280;38249;48.920;12.882;2022-09-04T11:20:28;97475.94;;;52.80;10.61
52307;BME280;38249;48.920;12.882;2022-09-04T11:23:24;97471.03;;;53.21;10.07
52307;BME280;38249;48.920;12.882;2022-09-04T11:29:27;97474.63;;;53.29;9.37
52307;BME280;38249;48.920;12.882;2022-09-04T11:32:19;97486.06;;;53.37;9.55
52307;BME280;38249;48.920;12.882;2022-09-04T11:35:18;97469.00;;;51.23;11.11
52307;BME280;38249;48.920;12.882;2022-09-04T11:37:58;97468.59;;;50.53;11.41
52307;BME280;38249;48.920;12.882;2022-09-04T11:40:58;97464.59;;;50.06;11.49
52307;BME280;38249;48.920;12.882;2022-09-04T11:44:05;97462.09;;;50.45;11.47
52307;BME280;38249;48.920;12.882;2022-09-04T11:47:01;97465.16;;;51.49;10.58
52307;BME280;38249;48.920;12.882;2022-09-04T11:52:40;97471.00;;;52.49;10.06
52307;BME280;38249;48.920;12.882;2022-09-04T11:58:43;97466.53;;;53.02;9.60
52307;BME280;38249;48.920;12.882;2022-09-04T12:01:27;97461.53;;;53.10;9.19
52307;BME280;38249;48.920;12.882;2022-09-04T12:04:24;97464.69;;;50.35;11.00
52307;BME280;38249;48.920;12.882;2022-09-04T12:07:05;97456.44;;;51.78;10.02
52307;BME280;38249;48.920;12.882;2022-09-04T12:10:10;97458.28;;;51.52;10.28
52307;BME280;38249;48.920;12.882;2022-09-04T12:12:59;97463.72;;;52.17;9.80
52307;BME280;38249;48.920;12.882;2022-09-04T12:15:58;97468.91;;;52.65;9.58
52307;BME280;38249;48.920;12.882;2022-09-04T12:18:54;97472.97;;;53.51;9.49
52307;BME280;38249;48.920;12.882;2022-09-04T12:22:00;97461.22;;;50.87;10.53
52307;BME280;38249;48.920;12.882;2022-09-04T12:24:40;97452.81;;;51.17;10.35
52307;BME280;38249;48.920;12.882;2022-09-04T12:27:26;97459.00;;;53.22;9.36
52307;BME280;38249;48.920;12.882;2022-09-04T12:30:06;97461.19;;;53.47;9.10
52307;BME280;38249;48.920;12.882;2022-09-04T12:33:04;97458.78;;;51.95;9.82
52307;BME280;38249;48.920;12.882;2022-09-04T12:35:53;97457.41;;;52.81;9.39
52307;BME280;38249;48.920;12.882;2022-09-04T12:41:43;97452.59;;;52.99;9.21
52307;BME280;38249;48.920;12.882;2022-09-04T12:44:25;97456.63;;;52.88;9.06
52307;BME280;38249;48.920;12.882;2022-09-04T12:47:06;97458.84;;;53.12;8.62
52307;BME280;38249;48.920;12.882;2022-09-04T12:49:51;97450.75;;;52.78;9.22
52307;BME280;38249;48.920;12.882;2022-09-04T12:52:34;97449.84;;;53.64;8.43
52307;BME280;38249;48.920;12.882;2022-09-04T12:55:12;97456.06;;;54.29;8.38
52307;BME280;38249;48.920;12.882;2022-09-04T12:57:47;97457.09;;;55.28;7.75
52307;BME280;38249;48.920;12.882;2022-09-04T13:00:20;97468.06;;;55.94;7.44
52307;BME280;38249;48.920;12.882;2022-09-04T13:02:59;97456.88;;;55.61;7.52
52307;BME280;38249;48.920;12.882;2022-09-04T13:05:46;97461.16;;;54.90;7.96
52307;BME280;38249;48.920;12.882;2022-09-04T13:08:23;97466.31;;;55.54;7.50
52307;BME280;38249;48.920;12.882;2022-09-04T13:11:09;97453.31;;;56.17;7.24
52307;BME280;38249;48.920;12.882;2022-09-04T13:13:44;97449.16;;;56.67;7.46
52307;BME280;38249;48.920;12.882;2022-09-04T13:16:19;97459.03;;;56.74;7.12
52307;BME280;38249;48.920;12.882;2022-09-04T13:18:55;97450.41;;;56.08;7.18
52307;BME280;38249;48.920;12.882;2022-09-04T13:21:37;97449.06;;;56.09;6.70
52307;BME280;38249;48.920;12.882;2022-09-04T13:24:19;97449.94;;;57.26;6.51
52307;BME280;38249;48.920;12.882;2022-09-04T13:27:08;97447.47;;;57.93;6.39
52307;BME280;38249;48.920;12.882;2022-09-04T13:29:47;97452.25;;;57.69;6.42
52307;BME280;38249;48.920;12.882;2022-09-04T13:32:58;97447.16;;;58.21;6.80
52307;BME280;38249;48.920;12.882;2022-09-04T13:35:38;97452.97;;;57.19;6.91
52307;BME280;38249;48.920;12.882;2022-09-04T13:38:31;97443.97;;;55.35;7.76
52307;BME280;38249;48.920;12.882;2022-09-04T13:41:25;97445.47;;;54.74;7.96
52307;BME280;38249;48.920;12.882;2022-09-04T13:44:24;97446.13;;;55.89;7.95
52307;BME280;38249;48.920;12.882;2022-09-04T13:47:00;97447.97;;;57.00;6.70
52307;BME280;38249;48.920;12.882;2022-09-04T13:49:32;97447.69;;;56.96;6.77
52307;BME280;38249;48.920;12.882;2022-09-04T13:52:05;97448.41;;;57.25;6.93
52307;BME280;38249;48.920;12.882;2022-09-04T13:54:36;97449.06;;;57.65;6.49
52307;BME280;38249;48.920;12.882;2022-09-04T13:57:08;97446.91;;;56.56;7.14
52307;BME280;38249;48.920;12.882;2022-09-04T13:59:41;97445.84;;;57.10;6.53
52307;BME280;38249;48.920;12.882;2022-09-04T14:02:10;97444.19;;;55.74;7.74
52307;BME280;38249;48.920;12.882;2022-09-04T14:04:41;97429.03;;;51.67;9.34
52307;BME280;38249;48.920;12.882;2022-09-04T14:07:12;97421.47;;;49.68;10.21
52307;BME280;38249;48.920;12.882;2022-09-04T14:09:44;97420.34;;;49.84;10.33
52307;BME280;38249;48.920;12.882;2022-09-04T14:12:27;97420.63;;;49.25;10.88
52307;BME280;38249;48.920;12.882;2022-09-04T14:15:21;97414.88;;;46.77;12.41
52307;BME280;38249;48.920;12.882;2022-09-04T14:17:56;97417.59;;;48.30;11.97
52307;BME280;38249;48.920;12.882;2022-09-04T14:20:29;97411.94;;;46.09;13.51
52307;BME280;38249;48.920;12.882;2022-09-04T14:23:07;97416.94;;;44.21;14.80
52307;BME280;38249;48.920;12.882;2022-09-04T14:25:42;97419.13;;;42.72;15.74
52307;BME280;38249;48.920;12.882;2022-09-04T14:28:19;97407.69;;;41.28;17.35
52307;BME280;38249;48.920;12.882;2022-09-04T14:30:57;97408.66;;;40.12;18.81
52307;BME280;38249;48.920;12.882;2022-09-04T14:33:32;97412.97;;;39.39;18.72
52307;BME280;38249;48.920;12.882;2022-09-04T14:36:14;97406.00;;;38.71;19.37
52307;BME280;38249;48.920;12.882;2022-09-04T14:39:04;97404.53;;;38.18;20.27
52307;BME280;38249;48.920;12.882;2022-09-04T14:41:51;97407.50;;;37.26;21.58
52307;BME280;38249;48.920;12.882;2022-09-04T14:44:27;97400.75;;;36.67;22.53
52307;BME280;38249;48.920;12.882;2022-09-04T14:47:08;97404.03;;;36.25;22.83
52307;BME280;38249;48.920;12.882;2022-09-04T14:49:41;97404.94;;;35.91;23.81
52307;BME280;38249;48.920;12.882;2022-09-04T14:52:13;97401.69;;;35.70;24.29
52307;BME280;38249;48.920;12.882;2022-09-04T14:54:45;97406.97;;;35.46;24.35
52307;BME280;38249;48.920;12.882;2022-09-04T14:57:17;97398.38;;;35.18;25.24
52307;BME280;38249;48.920;12.882;2022-09-04T14:59:49;97398.00;;;34.94;25.55
52307;BME280;38249;48.920;12.882;2022-09-04T15:02:27;97397.97;;;34.59;25.80
52307;BME280;38249;48.920;12.882;2022-09-04T15:04:59;97395.88;;;34.12;26.11
52307;BME280;38249;48.920;12.882;2022-09-04T15:10:28;97402.44;;;34.18;25.89
52307;BME280;38249;48.920;12.882;2022-09-04T15:13:29;97396.84;;;33.92;26.56